createdAt,value
2018-04-24T00:00:20.313Z,100979.68
2018-04-24T00:02:48.633Z,100983.80
2018-04-24T00:05:16.953Z,100972.59
2018-04-24T00:07:45.296Z,100964.06
2018-04-24T00:10:13.630Z,100967.76
2018-04-24T00:12:41.972Z,100965.96
2018-04-24T00:15:10.296Z,100958.34
2018-04-24T00:17:38.641Z,100963.41
2018-04-24T00:20:06.961Z,100962.31
2018-04-24T00:22:35.304Z,100962.72
2018-04-24T00:25:03.633Z,100969.94
2018-04-24T00:27:31.978Z,100963.13
2018-04-24T00:30:00.312Z,100963.23
2018-04-24T00:32:28.673Z,100959.13
2018-04-24T00:34:57.013Z,100950.40
2018-04-24T00:37:25.369Z,100955.28
2018-04-24T00:39:53.689Z,100958.17
2018-04-24T00:42:22.044Z,100956.10
2018-04-24T00:44:50.370Z,100947.88
2018-04-24T00:47:18.725Z,100941.65
2018-04-24T00:49:47.041Z,100933.08
2018-04-24T00:52:15.385Z,100929.03
2018-04-24T00:54:43.704Z,100929.27
2018-04-24T00:57:12.056Z,100923.83
2018-04-24T00:59:40.388Z,100928.60
2018-04-24T01:02:08.738Z,100931.66
2018-04-24T01:04:37.069Z,100930.34
2018-04-24T01:07:05.417Z,100923.53
2018-04-24T01:09:33.761Z,100916.78
2018-04-24T01:12:02.104Z,100920.39
2018-04-24T01:14:30.441Z,100917.12
2018-04-24T01:16:58.780Z,100919.34
2018-04-24T01:19:27.116Z,100921.12
2018-04-24T01:21:55.465Z,100907.84
2018-04-24T01:24:23.801Z,100905.70
2018-04-24T01:26:52.160Z,100899.77
2018-04-24T01:29:20.498Z,100898.67
2018-04-24T01:31:48.825Z,100906.83
2018-04-24T01:34:17.185Z,100902.11
2018-04-24T01:36:45.525Z,100911.77
2018-04-24T01:39:13.879Z,100904.01
2018-04-24T01:41:42.217Z,100897.13
2018-04-24T01:44:10.581Z,100890.02
2018-04-24T01:46:38.908Z,100893.54
2018-04-24T01:49:07.269Z,100902.19
2018-04-24T01:51:35.592Z,100896.97
2018-04-24T01:54:03.943Z,100903.14
2018-04-24T01:56:32.290Z,100899.69
2018-04-24T01:59:00.650Z,100898.39
2018-04-24T02:01:28.994Z,100895.15
2018-04-24T02:03:57.348Z,100895.61
2018-04-24T02:06:25.691Z,100894.84
2018-04-24T02:08:54.054Z,100897.91
2018-04-24T02:11:22.393Z,100890.72
2018-04-24T02:13:50.747Z,100885.13
2018-04-24T02:16:19.068Z,100884.27
2018-04-24T02:18:47.428Z,100887.15
2018-04-24T02:21:15.770Z,100885.94
2018-04-24T02:23:44.120Z,100878.09
2018-04-24T02:26:12.461Z,100873.66
2018-04-24T02:28:40.826Z,100880.78
2018-04-24T02:31:09.155Z,100873.56
2018-04-24T02:33:37.505Z,100860.46
2018-04-24T02:36:05.849Z,100866.11
2018-04-24T02:38:34.191Z,100860.98
2018-04-24T02:41:02.524Z,100850.69
2018-04-24T02:43:30.876Z,100841.27
2018-04-24T02:45:59.213Z,100836.72
2018-04-24T02:48:27.570Z,100846.38
2018-04-24T02:50:55.904Z,100861.37
2018-04-24T02:53:24.260Z,100856.16
2018-04-24T02:55:52.592Z,100851.38
2018-04-24T02:58:20.961Z,100852.21
2018-04-24T03:00:49.293Z,100863.68
2018-04-24T03:03:17.641Z,100862.41
2018-04-24T03:05:45.980Z,100874.41
2018-04-24T03:08:14.345Z,100868.27
2018-04-24T03:10:42.692Z,100848.50
2018-04-24T03:13:11.044Z,100844.42
2018-04-24T03:15:39.390Z,100848.03
2018-04-24T03:18:07.745Z,100851.69
2018-04-24T03:20:36.089Z,100847.56
2018-04-24T03:23:04.453Z,100853.88
2018-04-24T03:25:32.793Z,100846.09
2018-04-24T03:28:01.127Z,100829.63
2018-04-24T03:30:29.480Z,100821.55
2018-04-24T03:32:57.817Z,100818.64
2018-04-24T03:35:26.172Z,100821.72
2018-04-24T03:37:54.513Z,100808.95
2018-04-24T03:40:22.880Z,100814.67
2018-04-24T03:42:51.212Z,100813.06
2018-04-24T03:45:19.568Z,100814.31
2018-04-24T03:47:47.907Z,100810.84
2018-04-24T03:50:16.276Z,100828.38
2018-04-24T03:52:44.621Z,100843.36
2018-04-24T03:55:12.985Z,100849.11
2018-04-24T03:57:41.338Z,100848.52
2018-04-24T04:00:09.686Z,100861.08
2018-04-24T04:02:38.037Z,100867.22
2018-04-24T04:05:06.397Z,100868.78
2018-04-24T04:07:34.748Z,100873.52
2018-04-24T04:10:03.104Z,100868.31
2018-04-24T04:12:31.464Z,100876.36
2018-04-24T04:14:59.824Z,100881.06
2018-04-24T04:17:39.814Z,100875.77
2018-04-24T04:20:19.978Z,100870.08
2018-04-24T04:23:00.125Z,100860.64
2018-04-24T04:25:28.527Z,100863.64
2018-04-24T04:27:56.853Z,100863.17
2018-04-24T04:30:25.209Z,100867.52
2018-04-24T04:32:53.637Z,100872.16
2018-04-24T04:35:21.909Z,100870.33
2018-04-24T04:37:50.412Z,100872.84
2018-04-24T04:40:18.764Z,100879.62
2018-04-24T04:42:47.102Z,100877.47
2018-04-24T04:45:15.464Z,100873.13
2018-04-24T04:47:43.902Z,100860.28
2018-04-24T04:50:12.183Z,100857.00
2018-04-24T04:52:40.525Z,100868.54
2018-04-24T04:55:08.880Z,100872.27
2018-04-24T04:57:38.194Z,100873.19
2018-04-24T05:00:06.629Z,100879.05
2018-04-24T05:02:34.964Z,100885.73
2018-04-24T05:05:03.316Z,100891.65
2018-04-24T05:07:31.655Z,100887.28
2018-04-24T05:10:00.000Z,100887.63
2018-04-24T05:12:28.337Z,100893.18
2018-04-24T05:14:56.707Z,100881.56
2018-04-24T05:17:25.029Z,100873.32
2018-04-24T05:19:53.378Z,100872.69
2018-04-24T05:22:21.700Z,100874.77
2018-04-24T05:24:50.948Z,100877.62
2018-04-24T05:27:19.280Z,100886.16
2018-04-24T05:29:47.635Z,100881.98
2018-04-24T05:32:15.978Z,100882.55
2018-04-24T05:34:44.328Z,100881.91
2018-04-24T05:37:12.670Z,100879.57
2018-04-24T05:39:41.025Z,100879.48
2018-04-24T05:42:09.357Z,100884.72
2018-04-24T05:44:38.579Z,100885.91
2018-04-24T05:47:06.908Z,100894.89
2018-04-24T05:49:35.261Z,100885.04
2018-04-24T05:52:03.613Z,100876.89
2018-04-24T05:54:32.109Z,100883.23
2018-04-24T05:57:00.446Z,100887.63
2018-04-24T05:59:28.780Z,100878.85
2018-04-24T06:01:57.136Z,100877.20
2018-04-24T06:04:26.196Z,100874.45
2018-04-24T06:06:54.547Z,100878.27
2018-04-24T06:09:22.885Z,100882.26
2018-04-24T06:11:51.240Z,100891.58
2018-04-24T06:14:19.648Z,100891.52
2018-04-24T06:16:48.001Z,100894.96
2018-04-24T06:19:16.328Z,100892.83
2018-04-24T06:21:44.682Z,100898.94
2018-04-24T06:24:13.014Z,100908.79
2018-04-24T06:26:41.380Z,100897.95
2018-04-24T06:29:09.748Z,100887.61
2018-04-24T06:31:38.100Z,100878.25
2018-04-24T06:34:06.569Z,100876.98
2018-04-24T06:36:34.921Z,100878.39
2018-04-24T06:39:03.325Z,100880.13
2018-04-24T06:41:31.693Z,100885.58
2018-04-24T06:44:00.042Z,100880.39
2018-04-24T06:46:28.737Z,100880.88
2018-04-24T06:48:57.094Z,100882.59
2018-04-24T06:51:25.451Z,100879.90
2018-04-24T06:53:53.839Z,100883.67
2018-04-24T06:56:22.160Z,100892.18
2018-04-24T06:58:50.500Z,100899.77
2018-04-24T07:01:18.861Z,100892.41
2018-04-24T07:03:47.194Z,100894.47
2018-04-24T07:06:15.552Z,100883.49
2018-04-24T07:08:43.884Z,100886.78
2018-04-24T07:11:12.249Z,100882.14
2018-04-24T07:13:40.580Z,100881.88
2018-04-24T07:16:08.936Z,100878.81
2018-04-24T07:18:37.277Z,100890.97
2018-04-24T07:21:05.632Z,100888.67
2018-04-24T07:23:33.969Z,100890.73
2018-04-24T07:26:02.329Z,100882.27
2018-04-24T07:28:30.666Z,100886.28
2018-04-24T07:30:59.025Z,100888.52
2018-04-24T07:33:27.360Z,100908.03
2018-04-24T07:35:55.712Z,100917.85
2018-04-24T07:38:24.045Z,100917.98
2018-04-24T07:40:52.404Z,100915.81
2018-04-24T07:43:20.736Z,100917.64
2018-04-24T07:45:49.092Z,100923.29
2018-04-24T07:48:17.423Z,100931.06
2018-04-24T07:50:45.785Z,100933.72
2018-04-24T07:53:14.117Z,100939.06
2018-04-24T07:55:42.476Z,100932.64
2018-04-24T07:58:10.812Z,100930.23
2018-04-24T08:00:39.152Z,100918.88
2018-04-24T08:03:07.513Z,100917.10
2018-04-24T08:05:35.843Z,100927.41
2018-04-24T08:08:04.201Z,100930.73
2018-04-24T08:10:32.545Z,100927.23
2018-04-24T08:13:00.897Z,100931.87
2018-04-24T08:15:29.236Z,100930.58
2018-04-24T08:17:57.592Z,100935.19
2018-04-24T08:20:25.925Z,100929.19
2018-04-24T08:22:54.323Z,100929.05
2018-04-24T08:25:22.620Z,100930.12
2018-04-24T08:27:50.981Z,100930.84
2018-04-24T08:30:19.318Z,100933.82
2018-04-24T08:32:47.675Z,100934.58
2018-04-24T08:35:16.008Z,100932.63
2018-04-24T08:37:44.368Z,100931.91
2018-04-24T08:40:12.714Z,100933.99
2018-04-24T08:42:41.072Z,100941.03
2018-04-24T08:45:09.400Z,100940.94
2018-04-24T08:47:37.756Z,100936.23
2018-04-24T08:50:06.101Z,100937.38
2018-04-24T08:52:34.465Z,100938.02
2018-04-24T08:55:02.809Z,100938.17
2018-04-24T08:57:31.177Z,100940.45
2018-04-24T08:59:59.521Z,100938.12
2018-04-24T09:02:27.898Z,100940.45
2018-04-24T09:04:56.232Z,100937.50
2018-04-24T09:07:24.593Z,100937.63
2018-04-24T09:09:52.932Z,100939.73
2018-04-24T09:12:21.292Z,100945.73
2018-04-24T09:14:49.653Z,100954.76
2018-04-24T09:17:18.008Z,100950.64
2018-04-24T09:19:46.353Z,100945.82
2018-04-24T09:22:14.712Z,100950.16
2018-04-24T09:24:43.065Z,100948.06
2018-04-24T09:27:11.439Z,100950.37
2018-04-24T09:29:39.768Z,100937.86
2018-04-24T09:32:08.137Z,100954.05
2018-04-24T09:34:36.472Z,100963.32
2018-04-24T09:37:04.841Z,100973.61
2018-04-24T09:39:33.185Z,100959.53
2018-04-24T09:42:01.560Z,100961.96
2018-04-24T09:44:29.914Z,100969.47
2018-04-24T09:46:58.264Z,100975.14
2018-04-24T09:49:26.673Z,100978.41
2018-04-24T09:51:54.977Z,100981.09
2018-04-24T09:54:23.325Z,100982.30
2018-04-24T09:56:51.720Z,100982.27
2018-04-24T09:59:20.061Z,100988.63
2018-04-24T10:01:48.396Z,100984.06
2018-04-24T10:04:16.760Z,100984.56
2018-04-24T10:06:45.104Z,100976.73
2018-04-24T10:09:13.464Z,100973.48
2018-04-24T10:11:41.800Z,100971.50
2018-04-24T10:14:10.162Z,100967.63
2018-04-24T10:16:42.394Z,100975.60
2018-04-24T10:19:11.408Z,100977.63
2018-04-24T10:21:39.736Z,100978.84
2018-04-24T10:24:08.101Z,100968.09
2018-04-24T10:26:37.389Z,100972.52
2018-04-24T10:29:05.758Z,100979.28
2018-04-24T10:31:34.093Z,100981.12
2018-04-24T10:34:02.457Z,100969.95
2018-04-24T10:36:30.802Z,100975.11
2018-04-24T10:38:59.195Z,100969.44
2018-04-24T10:41:27.525Z,100959.37
2018-04-24T10:43:55.940Z,100957.69
2018-04-24T10:46:24.249Z,100950.86
2018-04-24T10:48:52.608Z,100938.33
2018-04-24T10:51:20.953Z,100926.00
2018-04-24T10:53:50.258Z,100937.16
2018-04-24T10:56:18.772Z,100939.59
2018-04-24T10:58:47.127Z,100943.86
2018-04-24T11:01:15.472Z,100939.96
2018-04-24T11:03:43.832Z,100947.50
2018-04-24T11:06:12.164Z,100950.25
2018-04-24T11:08:40.524Z,100960.53
2018-04-24T11:11:08.860Z,100961.58
2018-04-24T11:13:37.992Z,100956.88
2018-04-24T11:16:06.324Z,100956.21
2018-04-24T11:18:34.690Z,100950.44
2018-04-24T11:21:03.029Z,100958.27
2018-04-24T11:23:31.385Z,100946.34
2018-04-24T11:25:59.725Z,100948.70
2018-04-24T11:28:28.085Z,100950.00
2018-04-24T11:30:56.443Z,100933.80
2018-04-24T11:33:25.449Z,100935.27
2018-04-24T11:35:53.814Z,100936.81
2018-04-24T11:38:22.148Z,100937.12
2018-04-24T11:40:50.486Z,100935.30
2018-04-24T11:43:18.849Z,100939.17
2018-04-24T11:45:47.188Z,100942.28
2018-04-24T11:48:15.561Z,100944.11
2018-04-24T11:50:44.033Z,100944.78
2018-04-24T11:53:12.426Z,100954.84
2018-04-24T11:55:40.765Z,100960.88
2018-04-24T11:58:09.126Z,100956.13
2018-04-24T12:00:37.458Z,100963.56
2018-04-24T12:03:05.813Z,100970.20
2018-04-24T12:05:34.152Z,100979.39
2018-04-24T12:08:02.498Z,100972.07
2018-04-24T12:10:31.800Z,100978.21
2018-04-24T12:13:00.149Z,100975.19
2018-04-24T12:15:28.509Z,100984.69
2018-04-24T12:17:56.980Z,100976.26
2018-04-24T12:20:25.566Z,100982.84
2018-04-24T12:22:54.142Z,100980.81
2018-04-24T12:25:22.537Z,100987.78
2018-04-24T12:27:50.885Z,100989.43
2018-04-24T12:30:19.420Z,100984.11
2018-04-24T12:32:47.756Z,100989.50
2018-04-24T12:35:16.213Z,100977.56
2018-04-24T12:37:44.540Z,100984.18
2018-04-24T12:40:12.919Z,100972.25
2018-04-24T12:42:41.276Z,100971.17
2018-04-24T12:45:09.692Z,100967.78
2018-04-24T12:47:37.997Z,100969.02
2018-04-24T12:50:06.369Z,100963.92
2018-04-24T12:52:34.728Z,100966.38
2018-04-24T12:55:03.089Z,100965.22
2018-04-24T12:57:31.429Z,100962.48
2018-04-24T13:00:00.715Z,100953.73
2018-04-24T13:02:29.088Z,100948.89
2018-04-24T13:04:57.576Z,100953.63
2018-04-24T13:07:25.904Z,100953.53
2018-04-24T13:09:54.322Z,100956.41
2018-04-24T13:12:22.658Z,100961.11
2018-04-24T13:14:51.157Z,100958.75
2018-04-24T13:17:19.493Z,100958.36
2018-04-24T13:19:47.845Z,100956.84
2018-04-24T13:22:16.224Z,100952.77
2018-04-24T13:24:44.593Z,100943.51
2018-04-24T13:27:12.925Z,100942.47
2018-04-24T13:29:41.285Z,100931.98
2018-04-24T13:32:09.621Z,100933.80
2018-04-24T13:34:37.972Z,100927.66
2018-04-24T13:37:06.360Z,100921.63
2018-04-24T13:39:34.670Z,100923.05
2018-04-24T13:42:03.068Z,100919.24
2018-04-24T13:44:31.362Z,100910.58
2018-04-24T13:46:59.735Z,100903.17
2018-04-24T13:49:28.091Z,100912.94
2018-04-24T13:51:56.441Z,100904.09
2018-04-24T13:54:24.809Z,100912.14
2018-04-24T13:56:53.148Z,100912.97
2018-04-24T13:59:21.513Z,100910.12
2018-04-24T14:01:49.851Z,100912.14
2018-04-24T14:04:18.501Z,100907.64
2018-04-24T14:06:46.840Z,100898.59
2018-04-24T14:09:15.201Z,100898.55
2018-04-24T14:11:43.532Z,100893.05
2018-04-24T14:14:11.874Z,100886.06
2018-04-24T14:16:40.229Z,100898.28
2018-04-24T14:19:08.564Z,100890.59
2018-04-24T14:21:36.971Z,100895.88
2018-04-24T14:24:05.270Z,100900.63
2018-04-24T14:26:34.614Z,100892.35
2018-04-24T14:29:02.952Z,100892.52
2018-04-24T14:31:31.316Z,100891.13
2018-04-24T14:33:59.657Z,100892.23
2018-04-24T14:36:28.021Z,100887.59
2018-04-24T14:38:56.357Z,100888.16
2018-04-24T14:41:24.750Z,100878.86
2018-04-24T14:43:53.200Z,100879.68
2018-04-24T14:46:21.636Z,100881.63
2018-04-24T14:48:49.969Z,100873.41
2018-04-24T14:51:18.321Z,100878.50
2018-04-24T14:53:46.656Z,100873.27
2018-04-24T14:56:15.021Z,100875.97
2018-04-24T14:58:43.361Z,100872.36
2018-04-24T15:01:11.724Z,100866.95
2018-04-24T15:03:40.065Z,100876.01
2018-04-24T15:06:08.429Z,100869.59
2018-04-24T15:08:36.768Z,100867.99
2018-04-24T15:11:05.125Z,100865.05
2018-04-24T15:13:33.461Z,100873.67
2018-04-24T15:16:01.817Z,100873.34
2018-04-24T15:18:30.161Z,100870.22
2018-04-24T15:20:58.505Z,100864.92
2018-04-24T15:23:26.849Z,100862.47
2018-04-24T15:25:55.213Z,100857.05
2018-04-24T15:28:23.541Z,100848.03
2018-04-24T15:30:51.904Z,100842.39
2018-04-24T15:33:20.249Z,100844.56
2018-04-24T15:35:48.614Z,100848.41
2018-04-24T15:38:16.957Z,100849.81
2018-04-24T15:40:45.313Z,100855.70
2018-04-24T15:43:13.652Z,100850.23
2018-04-24T15:45:42.008Z,100847.48
2018-04-24T15:48:10.349Z,100837.75
2018-04-24T15:50:38.717Z,100838.04
2018-04-24T15:53:07.061Z,100835.80
2018-04-24T15:55:35.424Z,100830.31
2018-04-24T15:58:03.756Z,100834.27
2018-04-24T16:00:32.114Z,100836.63
2018-04-24T16:03:00.463Z,100832.27
2018-04-24T16:05:28.816Z,100832.08
2018-04-24T16:07:57.155Z,100829.19
2018-04-24T16:10:25.511Z,100827.08
2018-04-24T16:12:53.864Z,100823.02
2018-04-24T16:15:22.206Z,100816.28
2018-04-24T16:17:50.548Z,100816.52
2018-04-24T16:20:19.497Z,100819.95
2018-04-24T16:22:47.852Z,100819.47
2018-04-24T16:25:16.189Z,100819.89
2018-04-24T16:27:44.544Z,100812.56
2018-04-24T16:30:12.952Z,100816.13
2018-04-24T16:32:41.249Z,100813.43
2018-04-24T16:35:09.589Z,100818.55
2018-04-24T16:37:37.940Z,100819.34
2018-04-24T16:40:06.280Z,100811.82
2018-04-24T16:42:34.628Z,100805.12
2018-04-24T16:45:02.971Z,100809.72
2018-04-24T16:47:31.316Z,100805.20
2018-04-24T16:49:59.648Z,100803.89
2018-04-24T16:52:28.016Z,100801.78
2018-04-24T16:54:56.354Z,100794.73
2018-04-24T16:57:24.744Z,100789.74
2018-04-24T16:59:54.100Z,100789.72
2018-04-24T17:02:22.461Z,100788.02
2018-04-24T17:04:50.976Z,100779.80
2018-04-24T17:07:19.340Z,100778.45
2018-04-24T17:09:47.683Z,100781.19
2018-04-24T17:12:16.042Z,100778.31
2018-04-24T17:14:44.372Z,100777.20
2018-04-24T17:17:12.736Z,100775.47
2018-04-24T17:19:41.074Z,100767.84
2018-04-24T17:22:09.488Z,100762.30
2018-04-24T17:24:37.825Z,100753.84
2018-04-24T17:27:07.241Z,100752.55
2018-04-24T17:29:35.581Z,100757.50
2018-04-24T17:32:03.927Z,100754.73
2018-04-24T17:34:32.268Z,100760.35
2018-04-24T17:37:00.628Z,100763.72
2018-04-24T17:39:28.991Z,100767.09
2018-04-24T17:41:57.416Z,100767.44
2018-04-24T17:44:25.744Z,100764.03
2018-04-24T17:46:54.884Z,100749.67
2018-04-24T17:49:23.225Z,100748.21
2018-04-24T17:51:51.580Z,100750.91
2018-04-24T17:54:19.937Z,100741.88
2018-04-24T17:56:48.292Z,100740.52
2018-04-24T17:59:16.633Z,100743.23
2018-04-24T18:01:45.027Z,100751.98
2018-04-24T18:04:13.312Z,100754.02
2018-04-24T18:06:41.694Z,100746.44
2018-04-24T18:09:10.028Z,100750.89
2018-04-24T18:11:38.385Z,100747.12
2018-04-24T18:14:06.721Z,100744.01
2018-04-24T18:16:36.050Z,100742.82
2018-04-24T18:19:04.393Z,100735.87
2018-04-24T18:21:32.773Z,100734.88
2018-04-24T18:24:01.080Z,100727.77
2018-04-24T18:26:29.424Z,100726.64
2018-04-24T18:28:57.789Z,100726.31
2018-04-24T18:31:26.130Z,100722.45
2018-04-24T18:33:54.499Z,100729.89
2018-04-24T18:36:22.875Z,100724.18
2018-04-24T18:38:51.235Z,100722.15
2018-04-24T18:41:19.562Z,100717.95
2018-04-24T18:43:47.916Z,100713.84
2018-04-24T18:46:16.256Z,100702.03
2018-04-24T18:48:44.613Z,100705.61
2018-04-24T18:51:13.862Z,100702.08
2018-04-24T18:53:42.153Z,100705.63
2018-04-24T18:56:10.493Z,100708.91
2018-04-24T18:58:38.877Z,100719.14
2018-04-24T19:01:07.196Z,100710.77
2018-04-24T19:03:35.576Z,100723.11
2018-04-24T19:06:03.949Z,100708.91
2018-04-24T19:08:32.296Z,100708.98
2018-04-24T19:11:04.517Z,100705.15
2018-04-24T19:13:32.873Z,100693.07
2018-04-24T19:16:01.217Z,100688.75
2018-04-24T19:18:35.112Z,100686.72
2018-04-24T19:21:03.457Z,100688.64
2018-04-24T19:23:31.811Z,100698.17
2018-04-24T19:26:00.168Z,100697.73
2018-04-24T19:28:28.532Z,100693.76
2018-04-24T19:30:56.873Z,100686.46
2018-04-24T19:33:26.686Z,100674.93
2018-04-24T19:35:55.808Z,100672.60
2018-04-24T19:38:24.168Z,100662.42
2018-04-24T19:40:58.247Z,100650.63
2018-04-24T19:43:26.548Z,100642.50
2018-04-24T19:45:54.894Z,100655.58
2018-04-24T19:48:28.933Z,100646.92
2018-04-24T19:50:57.266Z,100650.77
2018-04-24T19:53:25.625Z,100642.83
2018-04-24T19:55:53.961Z,100639.00
2018-04-24T19:58:22.316Z,100645.77
2018-04-24T20:00:50.651Z,100640.51
2018-04-24T20:03:19.009Z,100647.77
2018-04-24T20:05:47.340Z,100649.08
2018-04-24T20:08:15.697Z,100645.91
2018-04-24T20:10:44.036Z,100639.98
2018-04-24T20:13:12.397Z,100637.05
2018-04-24T20:15:40.738Z,100640.59
2018-04-24T20:18:09.103Z,100634.57
2018-04-24T20:20:37.437Z,100628.33
2018-04-24T20:23:05.796Z,100628.31
2018-04-24T20:25:34.138Z,100632.44
2018-04-24T20:28:02.504Z,100622.50
2018-04-24T20:30:30.843Z,100615.70
2018-04-24T20:32:59.196Z,100619.99
2018-04-24T20:35:27.533Z,100616.84
2018-04-24T20:37:55.917Z,100610.70
2018-04-24T20:40:24.244Z,100609.97
2018-04-24T20:42:52.584Z,100603.61
2018-04-24T20:45:20.940Z,100603.77
2018-04-24T20:47:49.284Z,100607.29
2018-04-24T20:50:17.636Z,100597.45
2018-04-24T20:52:45.990Z,100588.50
2018-04-24T20:55:14.342Z,100593.44
2018-04-24T20:57:43.473Z,100595.80
2018-04-24T21:00:11.836Z,100590.82
2018-04-24T21:02:40.171Z,100586.03
2018-04-24T21:05:08.533Z,100589.80
2018-04-24T21:07:36.869Z,100589.20
2018-04-24T21:10:05.228Z,100582.66
2018-04-24T21:12:33.564Z,100581.67
2018-04-24T21:15:01.929Z,100585.80
2018-04-24T21:17:30.256Z,100580.85
2018-04-24T21:19:58.625Z,100572.91
2018-04-24T21:22:26.952Z,100574.78
2018-04-24T21:24:55.307Z,100566.63
2018-04-24T21:27:23.648Z,100559.80
2018-04-24T21:29:52.004Z,100562.22
2018-04-24T21:32:20.348Z,100548.64
2018-04-24T21:34:48.711Z,100546.86
2018-04-24T21:37:17.047Z,100550.69
2018-04-24T21:39:45.401Z,100542.61
2018-04-24T21:42:13.739Z,100541.22
2018-04-24T21:44:42.109Z,100532.38
2018-04-24T21:47:10.457Z,100529.19
2018-04-24T21:49:41.290Z,100528.67
2018-04-24T21:52:10.376Z,100523.58
2018-04-24T21:54:39.733Z,100513.83
2018-04-24T21:57:08.271Z,100507.23
2018-04-24T21:59:36.899Z,100504.65
2018-04-24T22:02:05.256Z,100495.48
2018-04-24T22:04:33.626Z,100495.44
2018-04-24T22:07:01.961Z,100483.15
2018-04-24T22:09:30.321Z,100471.80
2018-04-24T22:11:58.805Z,100470.73
2018-04-24T22:14:27.159Z,100465.55
2018-04-24T22:16:55.501Z,100460.46
2018-04-24T22:19:24.828Z,100457.34
2018-04-24T22:21:53.321Z,100459.11
2018-04-24T22:24:21.744Z,100451.03
2018-04-24T22:26:50.800Z,100442.23
2018-04-24T22:29:19.160Z,100431.81
2018-04-24T22:31:47.501Z,100437.20
2018-04-24T22:34:15.865Z,100434.89
2018-04-24T22:36:44.193Z,100426.98
2018-04-24T22:39:13.437Z,100421.52
2018-04-24T22:41:41.777Z,100423.35
2018-04-24T22:44:10.136Z,100419.17
2018-04-24T22:46:38.472Z,100415.72
2018-04-24T22:49:06.836Z,100412.66
2018-04-24T22:51:35.208Z,100409.77
2018-04-24T22:54:03.542Z,100393.16
2018-04-24T22:56:31.900Z,100397.38
2018-04-24T22:59:00.237Z,100393.39
2018-04-24T23:01:28.589Z,100391.93
2018-04-24T23:03:56.920Z,100384.60
2018-04-24T23:06:25.281Z,100375.73
2018-04-24T23:08:53.608Z,100375.46
2018-04-24T23:11:33.815Z,100383.31
2018-04-24T23:14:19.864Z,100376.48
2018-04-24T23:17:05.873Z,100372.34
2018-04-24T23:19:51.912Z,100368.89
2018-04-24T23:22:29.925Z,100365.25
2018-04-24T23:24:58.280Z,100358.73
2018-04-24T23:27:26.612Z,100351.08
2018-04-24T23:29:54.964Z,100343.31
2018-04-24T23:32:23.302Z,100341.00
2018-04-24T23:34:51.656Z,100331.55
2018-04-24T23:37:20.020Z,100322.93
2018-04-24T23:39:48.381Z,100326.55
2018-04-24T23:42:16.716Z,100322.80
2018-04-24T23:44:45.074Z,100322.68
2018-04-24T23:47:13.400Z,100314.06
2018-04-24T23:49:41.752Z,100304.50
2018-04-24T23:52:10.109Z,100299.87
2018-04-24T23:54:38.448Z,100290.88
2018-04-24T23:57:06.801Z,100292.06
2018-04-24T23:59:35.136Z,100288.15
